sensor_id;sensor_type;location;lat;lon;timestamp;P1;durP1;ratioP1;P2;durP2;ratioP2
6527;SDS011;64597;42.664;23.256;2023-09-08T00:02:12;7.65;;;5.38;;
6527;SDS011;64597;42.664;23.256;2023-09-08T00:04:38;7.70;;;5.50;;
6527;SDS011;64597;42.664;23.256;2023-09-08T00:07:03;10.05;;;6.45;;
6527;SDS011;64597;42.664;23.256;2023-09-08T00:09:29;9.00;;;6.45;;
6527;SDS011;64597;42.664;23.256;2023-09-08T00:11:55;7.10;;;4.80;;
6527;SDS011;64597;42.664;23.256;2023-09-08T00:14:20;6.63;;;4.38;;
6527;SDS011;64597;42.664;23.256;2023-09-08T00:16:46;9.00;;;5.25;;
6527;SDS011;64597;42.664;23.256;2023-09-08T00:19:11;9.70;;;4.85;;
6527;SDS011;64597;42.664;23.256;2023-09-08T00:21:37;6.70;;;4.70;;
6527;SDS011;64597;42.664;23.256;2023-09-08T00:24:04;7.68;;;4.55;;
6527;SDS011;64597;42.664;23.256;2023-09-08T00:26:30;6.60;;;4.55;;
6527;SDS011;64597;42.664;23.256;2023-09-08T00:28:56;6.88;;;4.50;;
6527;SDS011;64597;42.664;23.256;2023-09-08T00:31:21;5.63;;;4.30;;
6527;SDS011;64597;42.664;23.256;2023-09-08T00:33:47;6.25;;;4.18;;
6527;SDS011;64597;42.664;23.256;2023-09-08T00:36:12;6.47;;;4.55;;
6527;SDS011;64597;42.664;23.256;2023-09-08T00:38:38;6.18;;;3.78;;
6527;SDS011;64597;42.664;23.256;2023-09-08T00:41:09;6.97;;;4.25;;
6527;SDS011;64597;42.664;23.256;2023-09-08T00:44:04;5.13;;;3.65;;
6527;SDS011;64597;42.664;23.256;2023-09-08T00:46:29;4.55;;;3.45;;
6527;SDS011;64597;42.664;23.256;2023-09-08T00:48:55;6.28;;;3.53;;
6527;SDS011;64597;42.664;23.256;2023-09-08T00:51:21;5.85;;;3.83;;
6527;SDS011;64597;42.664;23.256;2023-09-08T00:53:47;3.70;;;3.20;;
6527;SDS011;64597;42.664;23.256;2023-09-08T00:56:12;4.72;;;3.70;;
6527;SDS011;64597;42.664;23.256;2023-09-08T00:58:38;4.65;;;3.00;;
6527;SDS011;64597;42.664;23.256;2023-09-08T01:01:04;3.95;;;3.10;;
6527;SDS011;64597;42.664;23.256;2023-09-08T01:03:30;5.30;;;3.30;;
6527;SDS011;64597;42.664;23.256;2023-09-08T01:05:56;6.07;;;3.10;;
6527;SDS011;64597;42.664;23.256;2023-09-08T01:08:21;6.32;;;3.20;;
6527;SDS011;64597;42.664;23.256;2023-09-08T01:10:47;4.15;;;3.08;;
6527;SDS011;64597;42.664;23.256;2023-09-08T01:13:13;5.00;;;3.50;;
6527;SDS011;64597;42.664;23.256;2023-09-08T01:15:38;3.45;;;2.60;;
6527;SDS011;64597;42.664;23.256;2023-09-08T01:18:04;5.00;;;2.88;;
6527;SDS011;64597;42.664;23.256;2023-09-08T01:26:17;5.45;;;3.40;;
6527;SDS011;64597;42.664;23.256;2023-09-08T01:31:14;4.60;;;2.60;;
6527;SDS011;64597;42.664;23.256;2023-09-08T01:33:40;5.03;;;3.15;;
6527;SDS011;64597;42.664;23.256;2023-09-08T01:36:07;4.35;;;2.92;;
6527;SDS011;64597;42.664;23.256;2023-09-08T01:38:33;5.30;;;3.25;;
6527;SDS011;64597;42.664;23.256;2023-09-08T01:40:58;5.07;;;3.30;;
6527;SDS011;64597;42.664;23.256;2023-09-08T01:43:24;4.47;;;3.22;;
6527;SDS011;64597;42.664;23.256;2023-09-08T01:45:49;3.90;;;3.08;;
6527;SDS011;64597;42.664;23.256;2023-09-08T01:48:14;4.53;;;3.05;;
6527;SDS011;64597;42.664;23.256;2023-09-08T01:50:40;4.45;;;2.90;;
6527;SDS011;64597;42.664;23.256;2023-09-08T01:53:05;6.78;;;3.38;;
6527;SDS011;64597;42.664;23.256;2023-09-08T01:55:31;6.25;;;3.25;;
6527;SDS011;64597;42.664;23.256;2023-09-08T01:58:02;5.47;;;3.45;;
6527;SDS011;64597;42.664;23.256;2023-09-08T02:00:28;4.70;;;3.03;;
6527;SDS011;64597;42.664;23.256;2023-09-08T02:02:53;7.25;;;3.53;;
6527;SDS011;64597;42.664;23.256;2023-09-08T02:05:19;4.90;;;2.85;;
6527;SDS011;64597;42.664;23.256;2023-09-08T02:07:44;5.78;;;3.38;;
6527;SDS011;64597;42.664;23.256;2023-09-08T02:10:10;5.07;;;3.03;;
6527;SDS011;64597;42.664;23.256;2023-09-08T02:12:36;4.75;;;3.10;;
6527;SDS011;64597;42.664;23.256;2023-09-08T02:15:01;5.47;;;3.33;;
6527;SDS011;64597;42.664;23.256;2023-09-08T02:17:27;4.65;;;3.10;;
6527;SDS011;64597;42.664;23.256;2023-09-08T02:19:52;6.18;;;3.60;;
6527;SDS011;64597;42.664;23.256;2023-09-08T02:22:18;6.60;;;3.60;;
6527;SDS011;64597;42.664;23.256;2023-09-08T02:24:43;5.97;;;3.35;;
6527;SDS011;64597;42.664;23.256;2023-09-08T02:27:09;6.32;;;3.75;;
6527;SDS011;64597;42.664;23.256;2023-09-08T02:29:34;5.72;;;3.40;;
6527;SDS011;64597;42.664;23.256;2023-09-08T02:32:00;5.45;;;3.80;;
6527;SDS011;64597;42.664;23.256;2023-09-08T02:34:25;6.72;;;3.72;;
6527;SDS011;64597;42.664;23.256;2023-09-08T02:36:51;6.07;;;3.72;;
6527;SDS011;64597;42.664;23.256;2023-09-08T02:39:16;8.07;;;3.70;;
6527;SDS011;64597;42.664;23.256;2023-09-08T02:41:42;5.85;;;3.50;;
6527;SDS011;64597;42.664;23.256;2023-09-08T02:44:07;4.38;;;3.70;;
6527;SDS011;64597;42.664;23.256;2023-09-08T02:46:33;6.75;;;3.55;;
6527;SDS011;64597;42.664;23.256;2023-09-08T02:48:58;5.90;;;3.55;;
6527;SDS011;64597;42.664;23.256;2023-09-08T02:51:23;5.47;;;3.92;;
6527;SDS011;64597;42.664;23.256;2023-09-08T02:53:49;6.78;;;3.40;;
6527;SDS011;64597;42.664;23.256;2023-09-08T02:56:14;4.97;;;3.83;;
6527;SDS011;64597;42.664;23.256;2023-09-08T02:58:40;7.47;;;4.15;;
6527;SDS011;64597;42.664;23.256;2023-09-08T03:01:09;8.50;;;4.30;;
6527;SDS011;64597;42.664;23.256;2023-09-08T03:03:36;6.88;;;4.82;;
6527;SDS011;64597;42.664;23.256;2023-09-08T03:06:02;7.00;;;4.20;;
6527;SDS011;64597;42.664;23.256;2023-09-08T03:08:28;9.05;;;4.88;;
6527;SDS011;64597;42.664;23.256;2023-09-08T03:10:57;7.45;;;4.43;;
6527;SDS011;64597;42.664;23.256;2023-09-08T03:13:23;6.13;;;4.43;;
6527;SDS011;64597;42.664;23.256;2023-09-08T03:15:51;7.40;;;4.63;;
6527;SDS011;64597;42.664;23.256;2023-09-08T03:18:16;10.93;;;4.93;;
6527;SDS011;64597;42.664;23.256;2023-09-08T03:20:42;7.35;;;5.05;;
6527;SDS011;64597;42.664;23.256;2023-09-08T03:23:08;10.57;;;5.28;;
6527;SDS011;64597;42.664;23.256;2023-09-08T03:25:34;8.65;;;4.80;;
6527;SDS011;64597;42.664;23.256;2023-09-08T03:27:59;8.55;;;5.65;;
6527;SDS011;64597;42.664;23.256;2023-09-08T03:30:25;6.25;;;4.20;;
6527;SDS011;64597;42.664;23.256;2023-09-08T03:32:50;9.07;;;4.72;;
6527;SDS011;64597;42.664;23.256;2023-09-08T03:35:16;10.27;;;4.97;;
6527;SDS011;64597;42.664;23.256;2023-09-08T03:37:41;8.23;;;4.82;;
6527;SDS011;64597;42.664;23.256;2023-09-08T03:40:07;7.55;;;5.03;;
6527;SDS011;64597;42.664;23.256;2023-09-08T03:42:32;7.15;;;4.53;;
6527;SDS011;64597;42.664;23.256;2023-09-08T03:44:59;8.45;;;4.68;;
6527;SDS011;64597;42.664;23.256;2023-09-08T03:47:25;9.27;;;5.13;;
6527;SDS011;64597;42.664;23.256;2023-09-08T03:49:50;8.65;;;4.90;;
6527;SDS011;64597;42.664;23.256;2023-09-08T03:52:16;9.80;;;4.53;;
6527;SDS011;64597;42.664;23.256;2023-09-08T03:54:41;7.57;;;4.20;;
6527;SDS011;64597;42.664;23.256;2023-09-08T03:57:07;7.05;;;4.88;;
6527;SDS011;64597;42.664;23.256;2023-09-08T03:59:32;7.35;;;4.63;;
6527;SDS011;64597;42.664;23.256;2023-09-08T04:01:57;7.57;;;5.00;;
6527;SDS011;64597;42.664;23.256;2023-09-08T04:04:23;7.60;;;5.18;;
6527;SDS011;64597;42.664;23.256;2023-09-08T04:06:55;7.25;;;4.57;;
6527;SDS011;64597;42.664;23.256;2023-09-08T04:09:20;6.63;;;4.90;;
6527;SDS011;64597;42.664;23.256;2023-09-08T04:11:46;8.07;;;4.60;;
6527;SDS011;64597;42.664;23.256;2023-09-08T04:14:11;7.38;;;5.03;;
6527;SDS011;64597;42.664;23.256;2023-09-08T04:16:36;6.57;;;4.32;;
6527;SDS011;64597;42.664;23.256;2023-09-08T04:19:02;7.93;;;4.88;;
6527;SDS011;64597;42.664;23.256;2023-09-08T04:21:27;7.32;;;4.35;;
6527;SDS011;64597;42.664;23.256;2023-09-08T04:23:53;6.88;;;4.70;;
6527;SDS011;64597;42.664;23.256;2023-09-08T04:26:18;13.98;;;6.20;;
6527;SDS011;64597;42.664;23.256;2023-09-08T04:28:43;13.77;;;5.60;;
6527;SDS011;64597;42.664;23.256;2023-09-08T04:31:09;11.10;;;5.00;;
6527;SDS011;64597;42.664;23.256;2023-09-08T04:33:34;9.98;;;5.05;;
6527;SDS011;64597;42.664;23.256;2023-09-08T04:36:00;7.60;;;5.03;;
6527;SDS011;64597;42.664;23.256;2023-09-08T04:38:25;8.93;;;4.03;;
6527;SDS011;64597;42.664;23.256;2023-09-08T04:40:50;7.38;;;3.88;;
6527;SDS011;64597;42.664;23.256;2023-09-08T04:43:16;5.95;;;4.22;;
6527;SDS011;64597;42.664;23.256;2023-09-08T04:45:41;6.35;;;4.07;;
6527;SDS011;64597;42.664;23.256;2023-09-08T04:48:07;8.35;;;4.43;;
6527;SDS011;64597;42.664;23.256;2023-09-08T04:50:32;8.52;;;4.75;;
6527;SDS011;64597;42.664;23.256;2023-09-08T04:52:58;6.82;;;4.22;;
6527;SDS011;64597;42.664;23.256;2023-09-08T04:55:23;7.43;;;4.45;;
6527;SDS011;64597;42.664;23.256;2023-09-08T04:57:49;6.22;;;4.50;;
6527;SDS011;64597;42.664;23.256;2023-09-08T05:00:15;7.28;;;5.22;;
6527;SDS011;64597;42.664;23.256;2023-09-08T05:02:41;7.63;;;4.43;;
6527;SDS011;64597;42.664;23.256;2023-09-08T05:05:06;6.50;;;4.35;;
6527;SDS011;64597;42.664;23.256;2023-09-08T05:07:32;8.23;;;4.60;;
6527;SDS011;64597;42.664;23.256;2023-09-08T05:09:58;8.55;;;4.68;;
6527;SDS011;64597;42.664;23.256;2023-09-08T05:12:23;8.60;;;4.80;;
6527;SDS011;64597;42.664;23.256;2023-09-08T05:14:49;6.78;;;4.32;;
6527;SDS011;64597;42.664;23.256;2023-09-08T05:17:14;7.70;;;4.72;;
6527;SDS011;64597;42.664;23.256;2023-09-08T05:19:40;6.20;;;4.70;;
6527;SDS011;64597;42.664;23.256;2023-09-08T05:22:06;7.85;;;5.35;;
6527;SDS011;64597;42.664;23.256;2023-09-08T05:24:34;6.03;;;4.15;;
6527;SDS011;64597;42.664;23.256;2023-09-08T05:26:59;7.15;;;4.75;;
6527;SDS011;64597;42.664;23.256;2023-09-08T05:29:25;7.53;;;4.55;;
6527;SDS011;64597;42.664;23.256;2023-09-08T05:31:50;8.10;;;3.83;;
6527;SDS011;64597;42.664;23.256;2023-09-08T05:34:16;11.05;;;4.25;;
6527;SDS011;64597;42.664;23.256;2023-09-08T05:36:42;8.05;;;4.22;;
6527;SDS011;64597;42.664;23.256;2023-09-08T05:39:07;5.50;;;4.00;;
6527;SDS011;64597;42.664;23.256;2023-09-08T05:41:33;8.95;;;4.10;;
6527;SDS011;64597;42.664;23.256;2023-09-08T05:43:59;6.70;;;4.50;;
6527;SDS011;64597;42.664;23.256;2023-09-08T05:46:25;5.10;;;4.00;;
6527;SDS011;64597;42.664;23.256;2023-09-08T05:48:50;7.97;;;4.28;;
6527;SDS011;64597;42.664;23.256;2023-09-08T05:51:19;8.93;;;4.57;;
6527;SDS011;64597;42.664;23.256;2023-09-08T05:53:44;8.55;;;3.75;;
6527;SDS011;64597;42.664;23.256;2023-09-08T05:56:09;7.15;;;4.22;;
6527;SDS011;64597;42.664;23.256;2023-09-08T05:58:35;4.97;;;3.33;;
6527;SDS011;64597;42.664;23.256;2023-09-08T06:01:01;5.30;;;3.33;;
6527;SDS011;64597;42.664;23.256;2023-09-08T06:03:29;4.93;;;3.58;;
6527;SDS011;64597;42.664;23.256;2023-09-08T06:05:55;3.88;;;3.08;;
6527;SDS011;64597;42.664;23.256;2023-09-08T06:08:21;6.07;;;2.92;;
6527;SDS011;64597;42.664;23.256;2023-09-08T06:10:46;6.43;;;3.10;;
6527;SDS011;64597;42.664;23.256;2023-09-08T06:13:11;8.25;;;3.67;;
6527;SDS011;64597;42.664;23.256;2023-09-08T06:15:37;8.43;;;4.03;;
6527;SDS011;64597;42.664;23.256;2023-09-08T06:18:02;5.95;;;3.30;;
6527;SDS011;64597;42.664;23.256;2023-09-08T06:20:28;3.80;;;3.20;;
6527;SDS011;64597;42.664;23.256;2023-09-08T06:22:53;6.35;;;3.08;;
6527;SDS011;64597;42.664;23.256;2023-09-08T06:25:19;5.38;;;3.20;;
6527;SDS011;64597;42.664;23.256;2023-09-08T06:27:44;3.97;;;3.28;;
6527;SDS011;64597;42.664;23.256;2023-09-08T06:30:10;6.90;;;2.95;;
6527;SDS011;64597;42.664;23.256;2023-09-08T06:32:38;4.50;;;2.78;;
6527;SDS011;64597;42.664;23.256;2023-09-08T06:35:04;4.68;;;2.75;;
6527;SDS011;64597;42.664;23.256;2023-09-08T06:37:34;6.45;;;3.53;;
6527;SDS011;64597;42.664;23.256;2023-09-08T06:40:00;4.82;;;3.10;;
6527;SDS011;64597;42.664;23.256;2023-09-08T06:42:26;5.05;;;2.85;;
6527;SDS011;64597;42.664;23.256;2023-09-08T06:44:51;5.68;;;2.90;;
6527;SDS011;64597;42.664;23.256;2023-09-08T06:47:17;3.38;;;2.53;;
6527;SDS011;64597;42.664;23.256;2023-09-08T06:49:43;3.35;;;2.75;;
6527;SDS011;64597;42.664;23.256;2023-09-08T06:52:08;3.70;;;2.70;;
6527;SDS011;64597;42.664;23.256;2023-09-08T06:54:33;4.35;;;2.90;;
6527;SDS011;64597;42.664;23.256;2023-09-08T06:56:59;5.07;;;2.80;;
6527;SDS011;64597;42.664;23.256;2023-09-08T06:59:24;3.42;;;2.40;;
6527;SDS011;64597;42.664;23.256;2023-09-08T07:01:50;3.78;;;2.47;;
6527;SDS011;64597;42.664;23.256;2023-09-08T07:04:16;4.55;;;2.35;;
6527;SDS011;64597;42.664;23.256;2023-09-08T07:06:41;5.22;;;2.88;;
6527;SDS011;64597;42.664;23.256;2023-09-08T07:09:08;4.00;;;2.67;;
6527;SDS011;64597;42.664;23.256;2023-09-08T07:11:34;3.65;;;2.40;;
6527;SDS011;64597;42.664;23.256;2023-09-08T07:13:59;5.93;;;2.80;;
6527;SDS011;64597;42.664;23.256;2023-09-08T07:16:25;4.40;;;2.50;;
6527;SDS011;64597;42.664;23.256;2023-09-08T07:18:50;4.57;;;2.78;;
6527;SDS011;64597;42.664;23.256;2023-09-08T07:21:16;3.88;;;2.30;;
6527;SDS011;64597;42.664;23.256;2023-09-08T07:23:41;3.63;;;2.58;;
6527;SDS011;64597;42.664;23.256;2023-09-08T07:26:07;4.85;;;2.45;;
6527;SDS011;64597;42.664;23.256;2023-09-08T07:28:32;3.03;;;2.70;;
6527;SDS011;64597;42.664;23.256;2023-09-08T07:31:01;3.70;;;3.33;;
6527;SDS011;64597;42.664;23.256;2023-09-08T07:33:28;5.22;;;2.78;;
6527;SDS011;64597;42.664;23.256;2023-09-08T07:35:53;3.13;;;2.53;;
6527;SDS011;64597;42.664;23.256;2023-09-08T07:38:19;4.45;;;2.78;;
6527;SDS011;64597;42.664;23.256;2023-09-08T07:40:44;4.90;;;2.78;;
6527;SDS011;64597;42.664;23.256;2023-09-08T07:43:10;4.63;;;2.90;;
6527;SDS011;64597;42.664;23.256;2023-09-08T07:45:35;3.50;;;3.20;;
6527;SDS011;64597;42.664;23.256;2023-09-08T07:48:00;3.33;;;3.00;;
6527;SDS011;64597;42.664;23.256;2023-09-08T07:50:26;2.92;;;2.55;;
6527;SDS011;64597;42.664;23.256;2023-09-08T07:52:54;5.43;;;2.78;;
6527;SDS011;64597;42.664;23.256;2023-09-08T07:55:24;4.35;;;2.42;;
6527;SDS011;64597;42.664;23.256;2023-09-08T07:57:52;3.00;;;2.70;;
6527;SDS011;64597;42.664;23.256;2023-09-08T08:00:18;2.80;;;2.40;;
6527;SDS011;64597;42.664;23.256;2023-09-08T08:02:48;6.30;;;2.70;;
6527;SDS011;64597;42.664;23.256;2023-09-08T08:05:15;4.28;;;2.60;;
6527;SDS011;64597;42.664;23.256;2023-09-08T08:07:42;5.85;;;2.85;;
6527;SDS011;64597;42.664;23.256;2023-09-08T08:10:08;4.13;;;3.08;;
6527;SDS011;64597;42.664;23.256;2023-09-08T08:12:35;4.57;;;2.75;;
6527;SDS011;64597;42.664;23.256;2023-09-08T08:15:04;6.10;;;2.47;;
6527;SDS011;64597;42.664;23.256;2023-09-08T08:17:31;4.57;;;2.60;;
6527;SDS011;64597;42.664;23.256;2023-09-08T08:19:56;3.20;;;2.38;;
6527;SDS011;64597;42.664;23.256;2023-09-08T08:22:26;3.00;;;2.50;;
6527;SDS011;64597;42.664;23.256;2023-09-08T08:24:51;5.57;;;2.50;;
6527;SDS011;64597;42.664;23.256;2023-09-08T08:27:17;6.50;;;2.90;;
6527;SDS011;64597;42.664;23.256;2023-09-08T08:29:42;5.15;;;3.17;;
6527;SDS011;64597;42.664;23.256;2023-09-08T08:32:08;4.55;;;2.50;;
6527;SDS011;64597;42.664;23.256;2023-09-08T08:34:34;4.20;;;2.50;;
6527;SDS011;64597;42.664;23.256;2023-09-08T08:36:59;3.80;;;2.45;;
6527;SDS011;64597;42.664;23.256;2023-09-08T08:39:25;4.03;;;2.30;;
6527;SDS011;64597;42.664;23.256;2023-09-08T08:41:50;3.55;;;2.10;;
6527;SDS011;64597;42.664;23.256;2023-09-08T08:44:17;2.58;;;2.00;;
6527;SDS011;64597;42.664;23.256;2023-09-08T08:46:43;6.65;;;3.03;;
6527;SDS011;64597;42.664;23.256;2023-09-08T08:49:11;3.30;;;2.20;;
6527;SDS011;64597;42.664;23.256;2023-09-08T08:51:40;2.95;;;2.25;;
6527;SDS011;64597;42.664;23.256;2023-09-08T08:54:11;2.47;;;2.05;;
6527;SDS011;64597;42.664;23.256;2023-09-08T08:56:38;3.20;;;2.55;;
6527;SDS011;64597;42.664;23.256;2023-09-08T08:59:03;5.88;;;2.67;;
6527;SDS011;64597;42.664;23.256;2023-09-08T09:01:29;3.75;;;2.60;;
6527;SDS011;64597;42.664;23.256;2023-09-08T09:03:56;3.05;;;2.47;;
6527;SDS011;64597;42.664;23.256;2023-09-08T09:06:23;6.10;;;2.60;;
6527;SDS011;64597;42.664;23.256;2023-09-08T09:08:48;4.97;;;2.83;;
6527;SDS011;64597;42.664;23.256;2023-09-08T09:11:14;4.40;;;2.40;;
6527;SDS011;64597;42.664;23.256;2023-09-08T09:13:39;3.67;;;2.40;;
6527;SDS011;64597;42.664;23.256;2023-09-08T09:16:05;6.13;;;2.83;;
6527;SDS011;64597;42.664;23.256;2023-09-08T09:18:40;3.60;;;2.63;;
6527;SDS011;64597;42.664;23.256;2023-09-08T09:21:19;5.03;;;2.72;;
6527;SDS011;64597;42.664;23.256;2023-09-08T09:23:44;3.30;;;2.60;;
6527;SDS011;64597;42.664;23.256;2023-09-08T09:26:09;6.28;;;2.70;;
6527;SDS011;64597;42.664;23.256;2023-09-08T09:28:47;3.75;;;2.53;;
6527;SDS011;64597;42.664;23.256;2023-09-08T09:31:13;4.78;;;2.72;;
6527;SDS011;64597;42.664;23.256;2023-09-08T09:33:39;4.43;;;2.65;;
6527;SDS011;64597;42.664;23.256;2023-09-08T09:36:04;3.78;;;2.45;;
6527;SDS011;64597;42.664;23.256;2023-09-08T09:38:31;3.00;;;2.40;;
6527;SDS011;64597;42.664;23.256;2023-09-08T09:40:59;5.03;;;2.70;;
6527;SDS011;64597;42.664;23.256;2023-09-08T09:43:25;3.80;;;2.75;;
6527;SDS011;64597;42.664;23.256;2023-09-08T09:45:53;2.83;;;2.50;;
6527;SDS011;64597;42.664;23.256;2023-09-08T09:48:19;3.90;;;2.75;;
6527;SDS011;64597;42.664;23.256;2023-09-08T09:50:46;5.45;;;2.83;;
6527;SDS011;64597;42.664;23.256;2023-09-08T09:53:13;4.25;;;2.72;;
6527;SDS011;64597;42.664;23.256;2023-09-08T09:55:40;3.17;;;2.40;;
6527;SDS011;64597;42.664;23.256;2023-09-08T09:58:08;5.25;;;2.63;;
6527;SDS011;64597;42.664;23.256;2023-09-08T10:00:35;4.22;;;2.90;;
6527;SDS011;64597;42.664;23.256;2023-09-08T10:03:02;4.97;;;3.13;;
6527;SDS011;64597;42.664;23.256;2023-09-08T10:05:29;2.85;;;2.58;;
6527;SDS011;64597;42.664;23.256;2023-09-08T10:07:55;4.13;;;2.65;;
6527;SDS011;64597;42.664;23.256;2023-09-08T10:10:21;4.75;;;2.65;;
6527;SDS011;64597;42.664;23.256;2023-09-08T10:12:57;4.30;;;2.78;;
6527;SDS011;64597;42.664;23.256;2023-09-08T10:15:31;3.08;;;2.60;;
6527;SDS011;64597;42.664;23.256;2023-09-08T10:17:57;6.55;;;3.22;;
6527;SDS011;64597;42.664;23.256;2023-09-08T10:20:25;3.67;;;2.65;;
6527;SDS011;64597;42.664;23.256;2023-09-08T10:23:02;5.10;;;2.58;;
6527;SDS011;64597;42.664;23.256;2023-09-08T10:25:30;5.25;;;2.75;;
6527;SDS011;64597;42.664;23.256;2023-09-08T10:28:03;4.20;;;2.60;;
6527;SDS011;64597;42.664;23.256;2023-09-08T10:30:29;5.05;;;2.75;;
6527;SDS011;64597;42.664;23.256;2023-09-08T10:32:56;3.60;;;2.75;;
6527;SDS011;64597;42.664;23.256;2023-09-08T10:35:23;3.45;;;2.72;;
6527;SDS011;64597;42.664;23.256;2023-09-08T10:37:49;5.18;;;3.05;;
6527;SDS011;64597;42.664;23.256;2023-09-08T10:40:19;3.55;;;2.33;;
6527;SDS011;64597;42.664;23.256;2023-09-08T10:42:49;5.00;;;2.90;;
6527;SDS011;64597;42.664;23.256;2023-09-08T10:45:15;5.28;;;2.85;;
6527;SDS011;64597;42.664;23.256;2023-09-08T10:50:19;4.32;;;2.65;;
6527;SDS011;64597;42.664;23.256;2023-09-08T10:55:45;3.35;;;2.55;;
6527;SDS011;64597;42.664;23.256;2023-09-08T10:58:20;5.78;;;2.45;;
6527;SDS011;64597;42.664;23.256;2023-09-08T11:00:58;5.30;;;3.15;;
6527;SDS011;64597;42.664;23.256;2023-09-08T11:06:02;4.40;;;2.60;;
6527;SDS011;64597;42.664;23.256;2023-09-08T11:08:28;4.25;;;2.67;;
6527;SDS011;64597;42.664;23.256;2023-09-08T11:10:54;4.25;;;2.40;;
6527;SDS011;64597;42.664;23.256;2023-09-08T11:13:20;5.63;;;2.80;;
6527;SDS011;64597;42.664;23.256;2023-09-08T11:15:46;3.35;;;2.70;;
6527;SDS011;64597;42.664;23.256;2023-09-08T11:18:11;4.18;;;2.58;;
6527;SDS011;64597;42.664;23.256;2023-09-08T11:20:38;3.35;;;2.75;;
6527;SDS011;64597;42.664;23.256;2023-09-08T11:23:03;5.03;;;2.88;;
6527;SDS011;64597;42.664;23.256;2023-09-08T11:25:31;4.18;;;2.65;;
6527;SDS011;64597;42.664;23.256;2023-09-08T11:27:58;5.40;;;3.00;;
6527;SDS011;64597;42.664;23.256;2023-09-08T11:30:24;5.07;;;3.30;;
6527;SDS011;64597;42.664;23.256;2023-09-08T11:32:50;3.53;;;2.78;;
6527;SDS011;64597;42.664;23.256;2023-09-08T11:35:16;4.85;;;2.85;;
6527;SDS011;64597;42.664;23.256;2023-09-08T11:37:45;5.47;;;2.70;;
6527;SDS011;64597;42.664;23.256;2023-09-08T11:40:11;3.95;;;2.90;;
6527;SDS011;64597;42.664;23.256;2023-09-08T11:42:38;14.02;;;3.22;;
6527;SDS011;64597;42.664;23.256;2023-09-08T11:45:13;3.72;;;2.70;;
6527;SDS011;64597;42.664;23.256;2023-09-08T11:47:43;5.63;;;3.53;;
6527;SDS011;64597;42.664;23.256;2023-09-08T11:50:09;3.92;;;2.63;;
6527;SDS011;64597;42.664;23.256;2023-09-08T11:52:40;3.85;;;2.78;;
6527;SDS011;64597;42.664;23.256;2023-09-08T11:55:06;6.95;;;3.50;;
6527;SDS011;64597;42.664;23.256;2023-09-08T11:57:32;6.70;;;2.97;;
6527;SDS011;64597;42.664;23.256;2023-09-08T11:59:58;6.68;;;2.92;;
6527;SDS011;64597;42.664;23.256;2023-09-08T12:02:25;4.50;;;3.10;;
6527;SDS011;64597;42.664;23.256;2023-09-08T12:04:52;4.85;;;2.97;;
6527;SDS011;64597;42.664;23.256;2023-09-08T12:07:19;5.85;;;3.05;;
6527;SDS011;64597;42.664;23.256;2023-09-08T12:09:45;5.20;;;3.28;;
6527;SDS011;64597;42.664;23.256;2023-09-08T12:12:13;3.75;;;2.72;;
6527;SDS011;64597;42.664;23.256;2023-09-08T12:14:42;4.05;;;2.72;;
6527;SDS011;64597;42.664;23.256;2023-09-08T12:17:08;3.75;;;2.88;;
6527;SDS011;64597;42.664;23.256;2023-09-08T12:19:34;3.25;;;2.47;;
6527;SDS011;64597;42.664;23.256;2023-09-08T12:22:04;3.60;;;2.92;;
6527;SDS011;64597;42.664;23.256;2023-09-08T12:27:19;4.80;;;3.13;;
6527;SDS011;64597;42.664;23.256;2023-09-08T12:30:00;4.40;;;2.90;;
6527;SDS011;64597;42.664;23.256;2023-09-08T12:32:28;5.68;;;2.63;;
6527;SDS011;64597;42.664;23.256;2023-09-08T12:34:55;4.07;;;2.78;;
6527;SDS011;64597;42.664;23.256;2023-09-08T12:37:22;7.47;;;2.80;;
6527;SDS011;64597;42.664;23.256;2023-09-08T12:39:48;3.75;;;2.80;;
6527;SDS011;64597;42.664;23.256;2023-09-08T12:42:14;4.15;;;3.20;;
6527;SDS011;64597;42.664;23.256;2023-09-08T12:44:39;4.68;;;2.97;;
6527;SDS011;64597;42.664;23.256;2023-09-08T12:47:06;3.78;;;3.03;;
6527;SDS011;64597;42.664;23.256;2023-09-08T12:49:31;5.53;;;3.45;;
6527;SDS011;64597;42.664;23.256;2023-09-08T12:51:57;6.07;;;3.17;;
6527;SDS011;64597;42.664;23.256;2023-09-08T12:54:22;5.03;;;2.75;;
6527;SDS011;64597;42.664;23.256;2023-09-08T12:56:48;3.55;;;2.92;;
6527;SDS011;64597;42.664;23.256;2023-09-08T12:59:13;4.50;;;2.97;;
6527;SDS011;64597;42.664;23.256;2023-09-08T13:01:39;3.65;;;3.28;;
6527;SDS011;64597;42.664;23.256;2023-09-08T13:04:04;3.58;;;2.67;;
6527;SDS011;64597;42.664;23.256;2023-09-08T13:06:30;4.85;;;2.97;;
6527;SDS011;64597;42.664;23.256;2023-09-08T13:08:57;3.30;;;2.83;;
6527;SDS011;64597;42.664;23.256;2023-09-08T13:11:23;3.88;;;2.97;;
6527;SDS011;64597;42.664;23.256;2023-09-08T13:13:49;3.28;;;2.70;;
6527;SDS011;64597;42.664;23.256;2023-09-08T13:16:14;4.72;;;3.00;;
6527;SDS011;64597;42.664;23.256;2023-09-08T13:18:40;8.05;;;3.10;;
6527;SDS011;64597;42.664;23.256;2023-09-08T13:21:06;3.65;;;2.80;;
6527;SDS011;64597;42.664;23.256;2023-09-08T13:23:32;5.93;;;3.45;;
6527;SDS011;64597;42.664;23.256;2023-09-08T13:25:57;6.85;;;3.35;;
6527;SDS011;64597;42.664;23.256;2023-09-08T13:28:22;4.55;;;3.47;;
6527;SDS011;64597;42.664;23.256;2023-09-08T13:30:48;4.07;;;2.90;;
6527;SDS011;64597;42.664;23.256;2023-09-08T13:33:13;5.65;;;3.47;;
6527;SDS011;64597;42.664;23.256;2023-09-08T13:35:39;5.10;;;3.13;;
6527;SDS011;64597;42.664;23.256;2023-09-08T13:38:05;3.40;;;3.10;;
6527;SDS011;64597;42.664;23.256;2023-09-08T13:40:30;4.90;;;3.40;;
6527;SDS011;64597;42.664;23.256;2023-09-08T13:42:56;5.80;;;3.03;;
6527;SDS011;64597;42.664;23.256;2023-09-08T13:45:21;5.22;;;3.50;;
6527;SDS011;64597;42.664;23.256;2023-09-08T13:47:47;4.38;;;3.10;;
6527;SDS011;64597;42.664;23.256;2023-09-08T13:50:13;4.88;;;3.00;;
6527;SDS011;64597;42.664;23.256;2023-09-08T13:52:38;5.60;;;2.80;;
6527;SDS011;64597;42.664;23.256;2023-09-08T13:55:05;3.47;;;2.83;;
6527;SDS011;64597;42.664;23.256;2023-09-08T13:57:31;5.07;;;2.90;;
6527;SDS011;64597;42.664;23.256;2023-09-08T13:59:56;5.20;;;2.58;;
6527;SDS011;64597;42.664;23.256;2023-09-08T14:02:21;5.07;;;3.50;;
6527;SDS011;64597;42.664;23.256;2023-09-08T14:04:47;5.57;;;3.05;;
6527;SDS011;64597;42.664;23.256;2023-09-08T14:07:13;4.38;;;2.92;;
6527;SDS011;64597;42.664;23.256;2023-09-08T14:09:39;3.80;;;2.95;;
6527;SDS011;64597;42.664;23.256;2023-09-08T14:12:04;4.80;;;3.40;;
6527;SDS011;64597;42.664;23.256;2023-09-08T14:14:30;4.50;;;2.88;;
6527;SDS011;64597;42.664;23.256;2023-09-08T14:16:56;5.68;;;2.70;;
6527;SDS011;64597;42.664;23.256;2023-09-08T14:19:21;9.75;;;3.70;;
6527;SDS011;64597;42.664;23.256;2023-09-08T14:21:47;3.22;;;2.70;;
6527;SDS011;64597;42.664;23.256;2023-09-08T14:24:12;5.45;;;2.80;;
6527;SDS011;64597;42.664;23.256;2023-09-08T14:26:38;3.97;;;2.67;;
6527;SDS011;64597;42.664;23.256;2023-09-08T14:29:04;6.18;;;3.40;;
6527;SDS011;64597;42.664;23.256;2023-09-08T14:31:29;4.13;;;3.03;;
6527;SDS011;64597;42.664;23.256;2023-09-08T14:33:55;3.75;;;2.70;;
6527;SDS011;64597;42.664;23.256;2023-09-08T14:36:20;5.43;;;3.08;;
6527;SDS011;64597;42.664;23.256;2023-09-08T14:38:46;4.90;;;2.85;;
6527;SDS011;64597;42.664;23.256;2023-09-08T14:41:11;7.30;;;3.03;;
6527;SDS011;64597;42.664;23.256;2023-09-08T14:43:37;4.68;;;3.03;;
6527;SDS011;64597;42.664;23.256;2023-09-08T14:46:02;3.35;;;2.88;;
6527;SDS011;64597;42.664;23.256;2023-09-08T14:48:28;5.10;;;2.78;;
6527;SDS011;64597;42.664;23.256;2023-09-08T14:50:55;7.63;;;3.17;;
6527;SDS011;64597;42.664;23.256;2023-09-08T14:53:21;4.97;;;2.88;;
6527;SDS011;64597;42.664;23.256;2023-09-08T14:55:47;4.90;;;3.53;;
6527;SDS011;64597;42.664;23.256;2023-09-08T14:58:16;5.03;;;3.10;;
6527;SDS011;64597;42.664;23.256;2023-09-08T15:00:42;4.95;;;3.53;;
6527;SDS011;64597;42.664;23.256;2023-09-08T15:03:09;3.95;;;3.08;;